sensor_id;sensor_type;location;lat;lon;timestamp;P1;durP1;ratioP1;P2;durP2;ratioP2
77466;SDS011;66564;42.482;25.548;2023-04-06T00:01:36;9.43;;;6.05;;
77466;SDS011;66564;42.482;25.548;2023-04-06T00:04:02;9.90;;;5.90;;
77466;SDS011;66564;42.482;25.548;2023-04-06T00:06:27;13.10;;;5.78;;
77466;SDS011;66564;42.482;25.548;2023-04-06T00:08:53;8.35;;;5.75;;
77466;SDS011;66564;42.482;25.548;2023-04-06T00:11:19;9.00;;;5.47;;
77466;SDS011;66564;42.482;25.548;2023-04-06T00:13:44;11.48;;;5.82;;
77466;SDS011;66564;42.482;25.548;2023-04-06T00:16:10;8.82;;;5.40;;
77466;SDS011;66564;42.482;25.548;2023-04-06T00:18:36;8.05;;;4.82;;
77466;SDS011;66564;42.482;25.548;2023-04-06T00:21:01;9.65;;;6.18;;
77466;SDS011;66564;42.482;25.548;2023-04-06T00:23:27;7.35;;;4.75;;
77466;SDS011;66564;42.482;25.548;2023-04-06T00:25:53;8.00;;;5.57;;
77466;SDS011;66564;42.482;25.548;2023-04-06T00:28:18;10.00;;;5.80;;
77466;SDS011;66564;42.482;25.548;2023-04-06T00:30:50;11.80;;;5.65;;
77466;SDS011;66564;42.482;25.548;2023-04-06T00:33:17;10.77;;;4.78;;
77466;SDS011;66564;42.482;25.548;2023-04-06T00:35:43;7.20;;;5.15;;
77466;SDS011;66564;42.482;25.548;2023-04-06T00:38:09;7.18;;;4.90;;
77466;SDS011;66564;42.482;25.548;2023-04-06T00:40:35;6.97;;;4.53;;
77466;SDS011;66564;42.482;25.548;2023-04-06T00:43:00;7.22;;;4.60;;
77466;SDS011;66564;42.482;25.548;2023-04-06T00:45:26;6.95;;;4.60;;
77466;SDS011;66564;42.482;25.548;2023-04-06T00:47:52;9.23;;;5.47;;
77466;SDS011;66564;42.482;25.548;2023-04-06T00:50:20;7.93;;;4.78;;
77466;SDS011;66564;42.482;25.548;2023-04-06T00:52:45;7.65;;;5.25;;
77466;SDS011;66564;42.482;25.548;2023-04-06T00:55:11;10.98;;;6.05;;
77466;SDS011;66564;42.482;25.548;2023-04-06T00:57:36;12.27;;;5.40;;
77466;SDS011;66564;42.482;25.548;2023-04-06T01:00:02;8.20;;;5.28;;
77466;SDS011;66564;42.482;25.548;2023-04-06T01:02:29;9.82;;;5.78;;
77466;SDS011;66564;42.482;25.548;2023-04-06T01:04:55;7.07;;;4.68;;
77466;SDS011;66564;42.482;25.548;2023-04-06T01:07:21;8.75;;;5.80;;
77466;SDS011;66564;42.482;25.548;2023-04-06T01:09:47;7.80;;;5.20;;
77466;SDS011;66564;42.482;25.548;2023-04-06T01:12:12;10.07;;;6.05;;
77466;SDS011;66564;42.482;25.548;2023-04-06T01:14:38;11.10;;;5.90;;
77466;SDS011;66564;42.482;25.548;2023-04-06T01:17:03;10.00;;;5.75;;
77466;SDS011;66564;42.482;25.548;2023-04-06T01:19:29;8.38;;;5.70;;
77466;SDS011;66564;42.482;25.548;2023-04-06T01:21:54;12.02;;;7.03;;
77466;SDS011;66564;42.482;25.548;2023-04-06T01:24:20;12.00;;;6.68;;
77466;SDS011;66564;42.482;25.548;2023-04-06T01:26:46;13.25;;;6.40;;
77466;SDS011;66564;42.482;25.548;2023-04-06T01:29:11;10.38;;;6.72;;
77466;SDS011;66564;42.482;25.548;2023-04-06T01:31:37;10.30;;;6.43;;
77466;SDS011;66564;42.482;25.548;2023-04-06T01:34:04;10.15;;;6.88;;
77466;SDS011;66564;42.482;25.548;2023-04-06T01:36:29;10.63;;;6.40;;
77466;SDS011;66564;42.482;25.548;2023-04-06T01:38:55;9.57;;;6.15;;
77466;SDS011;66564;42.482;25.548;2023-04-06T01:41:21;9.95;;;6.57;;
77466;SDS011;66564;42.482;25.548;2023-04-06T01:43:47;10.93;;;6.25;;
77466;SDS011;66564;42.482;25.548;2023-04-06T01:46:14;10.63;;;6.60;;
77466;SDS011;66564;42.482;25.548;2023-04-06T01:48:39;10.93;;;6.28;;
77466;SDS011;66564;42.482;25.548;2023-04-06T01:51:07;10.65;;;6.10;;
77466;SDS011;66564;42.482;25.548;2023-04-06T01:53:32;14.93;;;6.80;;
77466;SDS011;66564;42.482;25.548;2023-04-06T01:55:58;10.23;;;6.43;;
77466;SDS011;66564;42.482;25.548;2023-04-06T01:58:23;8.75;;;6.00;;
77466;SDS011;66564;42.482;25.548;2023-04-06T02:00:49;12.73;;;6.97;;
77466;SDS011;66564;42.482;25.548;2023-04-06T02:03:14;11.55;;;6.85;;
77466;SDS011;66564;42.482;25.548;2023-04-06T02:05:40;11.40;;;5.70;;
77466;SDS011;66564;42.482;25.548;2023-04-06T02:08:06;11.07;;;6.95;;
77466;SDS011;66564;42.482;25.548;2023-04-06T02:10:35;10.15;;;6.20;;
77466;SDS011;66564;42.482;25.548;2023-04-06T02:13:01;13.13;;;7.80;;
77466;SDS011;66564;42.482;25.548;2023-04-06T02:15:26;11.38;;;6.53;;
77466;SDS011;66564;42.482;25.548;2023-04-06T02:17:52;11.55;;;7.03;;
77466;SDS011;66564;42.482;25.548;2023-04-06T02:20:18;11.55;;;6.78;;
77466;SDS011;66564;42.482;25.548;2023-04-06T02:22:44;14.18;;;6.80;;
77466;SDS011;66564;42.482;25.548;2023-04-06T02:25:10;11.63;;;6.90;;
77466;SDS011;66564;42.482;25.548;2023-04-06T02:27:35;11.32;;;7.20;;
77466;SDS011;66564;42.482;25.548;2023-04-06T02:30:02;13.43;;;7.13;;
77466;SDS011;66564;42.482;25.548;2023-04-06T02:32:28;12.82;;;7.13;;
77466;SDS011;66564;42.482;25.548;2023-04-06T02:34:54;11.40;;;6.72;;
77466;SDS011;66564;42.482;25.548;2023-04-06T02:37:20;14.30;;;7.85;;
77466;SDS011;66564;42.482;25.548;2023-04-06T02:39:45;12.68;;;7.95;;
77466;SDS011;66564;42.482;25.548;2023-04-06T02:42:12;12.45;;;7.25;;
77466;SDS011;66564;42.482;25.548;2023-04-06T02:44:37;14.35;;;7.93;;
77466;SDS011;66564;42.482;25.548;2023-04-06T02:47:03;12.63;;;8.65;;
77466;SDS011;66564;42.482;25.548;2023-04-06T02:49:28;14.45;;;8.35;;
77466;SDS011;66564;42.482;25.548;2023-04-06T02:51:54;11.15;;;7.18;;
77466;SDS011;66564;42.482;25.548;2023-04-06T02:54:19;10.57;;;6.90;;
77466;SDS011;66564;42.482;25.548;2023-04-06T02:56:45;11.77;;;7.38;;
77466;SDS011;66564;42.482;25.548;2023-04-06T02:59:11;11.43;;;7.45;;
77466;SDS011;66564;42.482;25.548;2023-04-06T03:01:36;15.10;;;8.25;;
77466;SDS011;66564;42.482;25.548;2023-04-06T03:04:02;15.50;;;8.98;;
77466;SDS011;66564;42.482;25.548;2023-04-06T03:06:28;15.07;;;8.73;;
77466;SDS011;66564;42.482;25.548;2023-04-06T03:08:53;12.32;;;8.20;;
77466;SDS011;66564;42.482;25.548;2023-04-06T03:11:19;12.07;;;7.90;;
77466;SDS011;66564;42.482;25.548;2023-04-06T03:13:44;12.88;;;8.45;;
77466;SDS011;66564;42.482;25.548;2023-04-06T03:16:10;14.07;;;8.25;;
77466;SDS011;66564;42.482;25.548;2023-04-06T03:18:35;13.65;;;8.45;;
77466;SDS011;66564;42.482;25.548;2023-04-06T03:21:02;15.50;;;8.50;;
77466;SDS011;66564;42.482;25.548;2023-04-06T03:23:28;13.88;;;8.82;;
77466;SDS011;66564;42.482;25.548;2023-04-06T03:25:53;14.48;;;8.70;;
77466;SDS011;66564;42.482;25.548;2023-04-06T03:28:19;13.85;;;8.07;;
77466;SDS011;66564;42.482;25.548;2023-04-06T03:30:45;15.32;;;8.88;;
77466;SDS011;66564;42.482;25.548;2023-04-06T03:33:11;18.55;;;8.70;;
77466;SDS011;66564;42.482;25.548;2023-04-06T03:35:36;15.82;;;9.05;;
77466;SDS011;66564;42.482;25.548;2023-04-06T03:38:02;13.20;;;8.85;;
77466;SDS011;66564;42.482;25.548;2023-04-06T03:40:28;15.23;;;8.95;;
77466;SDS011;66564;42.482;25.548;2023-04-06T03:42:54;15.18;;;8.75;;
77466;SDS011;66564;42.482;25.548;2023-04-06T03:45:19;15.95;;;8.48;;
77466;SDS011;66564;42.482;25.548;2023-04-06T03:47:45;14.68;;;8.88;;
77466;SDS011;66564;42.482;25.548;2023-04-06T03:50:10;13.98;;;8.00;;
77466;SDS011;66564;42.482;25.548;2023-04-06T03:52:36;14.35;;;8.68;;
77466;SDS011;66564;42.482;25.548;2023-04-06T03:55:02;15.60;;;8.77;;
77466;SDS011;66564;42.482;25.548;2023-04-06T03:57:28;13.65;;;8.52;;
77466;SDS011;66564;42.482;25.548;2023-04-06T03:59:53;15.30;;;8.57;;
77466;SDS011;66564;42.482;25.548;2023-04-06T04:02:19;15.50;;;8.30;;
77466;SDS011;66564;42.482;25.548;2023-04-06T04:04:44;14.23;;;9.15;;
77466;SDS011;66564;42.482;25.548;2023-04-06T04:07:10;13.77;;;9.15;;
77466;SDS011;66564;42.482;25.548;2023-04-06T04:09:36;14.02;;;8.15;;
77466;SDS011;66564;42.482;25.548;2023-04-06T04:12:02;14.32;;;8.57;;
77466;SDS011;66564;42.482;25.548;2023-04-06T04:14:27;12.20;;;8.05;;
77466;SDS011;66564;42.482;25.548;2023-04-06T04:16:53;14.43;;;7.90;;
77466;SDS011;66564;42.482;25.548;2023-04-06T04:19:18;15.52;;;8.65;;
77466;SDS011;66564;42.482;25.548;2023-04-06T04:21:45;13.85;;;8.82;;
77466;SDS011;66564;42.482;25.548;2023-04-06T04:24:11;13.93;;;9.02;;
77466;SDS011;66564;42.482;25.548;2023-04-06T04:26:38;17.55;;;10.13;;
77466;SDS011;66564;42.482;25.548;2023-04-06T04:29:04;21.45;;;12.10;;
77466;SDS011;66564;42.482;25.548;2023-04-06T04:31:30;18.90;;;9.80;;
77466;SDS011;66564;42.482;25.548;2023-04-06T04:33:55;23.70;;;11.82;;
77466;SDS011;66564;42.482;25.548;2023-04-06T04:36:21;22.98;;;10.88;;
77466;SDS011;66564;42.482;25.548;2023-04-06T04:38:46;18.15;;;9.65;;
77466;SDS011;66564;42.482;25.548;2023-04-06T04:41:12;21.13;;;10.07;;
77466;SDS011;66564;42.482;25.548;2023-04-06T04:43:37;18.83;;;9.30;;
77466;SDS011;66564;42.482;25.548;2023-04-06T04:46:04;13.50;;;8.75;;
77466;SDS011;66564;42.482;25.548;2023-04-06T04:48:29;14.73;;;8.80;;
77466;SDS011;66564;42.482;25.548;2023-04-06T04:50:55;19.98;;;9.38;;
77466;SDS011;66564;42.482;25.548;2023-04-06T04:53:21;15.02;;;8.88;;
77466;SDS011;66564;42.482;25.548;2023-04-06T04:55:46;17.90;;;10.15;;
77466;SDS011;66564;42.482;25.548;2023-04-06T04:58:12;15.02;;;9.13;;
77466;SDS011;66564;42.482;25.548;2023-04-06T05:00:41;14.98;;;9.02;;
77466;SDS011;66564;42.482;25.548;2023-04-06T05:03:07;13.30;;;8.45;;
77466;SDS011;66564;42.482;25.548;2023-04-06T05:05:34;17.27;;;9.55;;
77466;SDS011;66564;42.482;25.548;2023-04-06T05:08:00;14.40;;;8.98;;
77466;SDS011;66564;42.482;25.548;2023-04-06T05:10:26;17.20;;;9.65;;
77466;SDS011;66564;42.482;25.548;2023-04-06T05:12:51;18.60;;;10.52;;
77466;SDS011;66564;42.482;25.548;2023-04-06T05:15:17;18.50;;;11.25;;
77466;SDS011;66564;42.482;25.548;2023-04-06T05:17:42;19.42;;;10.55;;
77466;SDS011;66564;42.482;25.548;2023-04-06T05:20:08;15.43;;;9.18;;
77466;SDS011;66564;42.482;25.548;2023-04-06T05:22:34;14.75;;;9.77;;
77466;SDS011;66564;42.482;25.548;2023-04-06T05:25:01;17.90;;;10.18;;
77466;SDS011;66564;42.482;25.548;2023-04-06T05:27:27;27.58;;;12.90;;
77466;SDS011;66564;42.482;25.548;2023-04-06T05:29:53;20.52;;;11.57;;
77466;SDS011;66564;42.482;25.548;2023-04-06T05:32:18;15.65;;;10.02;;
77466;SDS011;66564;42.482;25.548;2023-04-06T05:34:48;16.52;;;10.18;;
77466;SDS011;66564;42.482;25.548;2023-04-06T05:37:15;65.38;;;12.27;;
77466;SDS011;66564;42.482;25.548;2023-04-06T05:39:41;13.93;;;9.38;;
77466;SDS011;66564;42.482;25.548;2023-04-06T05:42:06;14.45;;;9.75;;
77466;SDS011;66564;42.482;25.548;2023-04-06T05:44:32;33.80;;;10.93;;
77466;SDS011;66564;42.482;25.548;2023-04-06T05:46:57;16.67;;;10.50;;
77466;SDS011;66564;42.482;25.548;2023-04-06T05:49:25;16.92;;;9.95;;
77466;SDS011;66564;42.482;25.548;2023-04-06T05:51:50;18.13;;;10.63;;
77466;SDS011;66564;42.482;25.548;2023-04-06T05:54:16;15.90;;;9.65;;
77466;SDS011;66564;42.482;25.548;2023-04-06T05:56:42;17.52;;;10.15;;
77466;SDS011;66564;42.482;25.548;2023-04-06T05:59:07;17.98;;;10.60;;
77466;SDS011;66564;42.482;25.548;2023-04-06T06:01:33;14.30;;;9.18;;
77466;SDS011;66564;42.482;25.548;2023-04-06T06:04:00;19.33;;;10.38;;
77466;SDS011;66564;42.482;25.548;2023-04-06T06:06:27;14.70;;;9.20;;
77466;SDS011;66564;42.482;25.548;2023-04-06T06:08:55;15.43;;;8.80;;
77466;SDS011;66564;42.482;25.548;2023-04-06T06:11:23;14.13;;;8.50;;
77466;SDS011;66564;42.482;25.548;2023-04-06T06:13:48;12.65;;;8.15;;
77466;SDS011;66564;42.482;25.548;2023-04-06T06:16:14;13.23;;;8.27;;
77466;SDS011;66564;42.482;25.548;2023-04-06T06:18:40;11.82;;;7.47;;
77466;SDS011;66564;42.482;25.548;2023-04-06T06:21:05;12.65;;;8.68;;
77466;SDS011;66564;42.482;25.548;2023-04-06T06:23:31;12.35;;;7.45;;
77466;SDS011;66564;42.482;25.548;2023-04-06T06:25:57;11.20;;;7.40;;
77466;SDS011;66564;42.482;25.548;2023-04-06T06:28:25;10.70;;;7.15;;
77466;SDS011;66564;42.482;25.548;2023-04-06T06:30:51;11.90;;;7.80;;
77466;SDS011;66564;42.482;25.548;2023-04-06T06:33:17;12.10;;;7.50;;
77466;SDS011;66564;42.482;25.548;2023-04-06T06:35:44;11.38;;;8.15;;
77466;SDS011;66564;42.482;25.548;2023-04-06T06:38:09;13.57;;;8.25;;
77466;SDS011;66564;42.482;25.548;2023-04-06T06:40:35;12.55;;;7.80;;
77466;SDS011;66564;42.482;25.548;2023-04-06T06:43:00;13.50;;;8.10;;
77466;SDS011;66564;42.482;25.548;2023-04-06T06:45:26;11.13;;;7.10;;
77466;SDS011;66564;42.482;25.548;2023-04-06T06:47:52;11.38;;;7.30;;
77466;SDS011;66564;42.482;25.548;2023-04-06T06:50:17;10.35;;;6.53;;
77466;SDS011;66564;42.482;25.548;2023-04-06T06:52:43;13.13;;;6.50;;
77466;SDS011;66564;42.482;25.548;2023-04-06T06:55:09;9.30;;;6.50;;
77466;SDS011;66564;42.482;25.548;2023-04-06T06:57:38;11.75;;;7.82;;
77466;SDS011;66564;42.482;25.548;2023-04-06T07:00:04;10.35;;;7.05;;
77466;SDS011;66564;42.482;25.548;2023-04-06T07:02:31;10.43;;;7.07;;
77466;SDS011;66564;42.482;25.548;2023-04-06T07:04:58;11.10;;;7.60;;
77466;SDS011;66564;42.482;25.548;2023-04-06T07:07:24;11.55;;;7.78;;
77466;SDS011;66564;42.482;25.548;2023-04-06T07:09:49;12.10;;;8.48;;
77466;SDS011;66564;42.482;25.548;2023-04-06T07:12:15;19.08;;;11.70;;
77466;SDS011;66564;42.482;25.548;2023-04-06T07:14:41;14.40;;;7.93;;
77466;SDS011;66564;42.482;25.548;2023-04-06T07:17:07;20.60;;;11.95;;
77466;SDS011;66564;42.482;25.548;2023-04-06T07:23:10;11.50;;;7.60;;
77466;SDS011;66564;42.482;25.548;2023-04-06T07:26:16;11.73;;;7.20;;
77466;SDS011;66564;42.482;25.548;2023-04-06T07:29:16;9.20;;;6.63;;
77466;SDS011;66564;42.482;25.548;2023-04-06T07:32:02;15.18;;;9.13;;
77466;SDS011;66564;42.482;25.548;2023-04-06T07:34:36;16.23;;;10.30;;
77466;SDS011;66564;42.482;25.548;2023-04-06T07:37:16;25.75;;;12.57;;
77466;SDS011;66564;42.482;25.548;2023-04-06T07:39:50;22.88;;;13.25;;
77466;SDS011;66564;42.482;25.548;2023-04-06T07:45:05;25.27;;;13.68;;
77466;SDS011;66564;42.482;25.548;2023-04-06T07:47:41;23.13;;;14.38;;
77466;SDS011;66564;42.482;25.548;2023-04-06T07:50:14;24.20;;;14.07;;
77466;SDS011;66564;42.482;25.548;2023-04-06T07:52:40;24.90;;;15.38;;
77466;SDS011;66564;42.482;25.548;2023-04-06T07:55:06;20.08;;;11.80;;
77466;SDS011;66564;42.482;25.548;2023-04-06T07:57:32;25.70;;;13.48;;
77466;SDS011;66564;42.482;25.548;2023-04-06T07:59:57;20.67;;;14.18;;
77466;SDS011;66564;42.482;25.548;2023-04-06T08:02:23;22.05;;;11.52;;
77466;SDS011;66564;42.482;25.548;2023-04-06T08:04:48;16.45;;;10.23;;
77466;SDS011;66564;42.482;25.548;2023-04-06T08:07:14;17.67;;;9.77;;
77466;SDS011;66564;42.482;25.548;2023-04-06T08:09:40;18.42;;;10.25;;
77466;SDS011;66564;42.482;25.548;2023-04-06T08:12:05;16.08;;;10.43;;
77466;SDS011;66564;42.482;25.548;2023-04-06T08:14:33;19.20;;;11.65;;
77466;SDS011;66564;42.482;25.548;2023-04-06T08:16:59;16.65;;;10.02;;
77466;SDS011;66564;42.482;25.548;2023-04-06T08:19:25;17.33;;;10.75;;
77466;SDS011;66564;42.482;25.548;2023-04-06T08:21:50;18.75;;;11.02;;
77466;SDS011;66564;42.482;25.548;2023-04-06T08:24:16;17.00;;;10.23;;
77466;SDS011;66564;42.482;25.548;2023-04-06T08:26:42;15.40;;;10.15;;
77466;SDS011;66564;42.482;25.548;2023-04-06T08:29:08;16.73;;;10.13;;
77466;SDS011;66564;42.482;25.548;2023-04-06T08:31:34;15.05;;;9.70;;
77466;SDS011;66564;42.482;25.548;2023-04-06T08:34:00;18.40;;;10.48;;
77466;SDS011;66564;42.482;25.548;2023-04-06T08:36:25;15.45;;;10.10;;
77466;SDS011;66564;42.482;25.548;2023-04-06T08:38:51;12.88;;;8.85;;
77466;SDS011;66564;42.482;25.548;2023-04-06T08:41:17;16.65;;;9.20;;
77466;SDS011;66564;42.482;25.548;2023-04-06T08:43:44;12.40;;;7.85;;
77466;SDS011;66564;42.482;25.548;2023-04-06T08:46:12;12.02;;;7.57;;
77466;SDS011;66564;42.482;25.548;2023-04-06T08:48:39;13.07;;;8.60;;
77466;SDS011;66564;42.482;25.548;2023-04-06T08:51:06;11.63;;;7.60;;
77466;SDS011;66564;42.482;25.548;2023-04-06T08:53:33;12.18;;;7.72;;
77466;SDS011;66564;42.482;25.548;2023-04-06T08:56:01;9.98;;;6.57;;
77466;SDS011;66564;42.482;25.548;2023-04-06T08:58:35;10.13;;;7.05;;
77466;SDS011;66564;42.482;25.548;2023-04-06T09:01:03;10.02;;;6.55;;
77466;SDS011;66564;42.482;25.548;2023-04-06T09:03:33;9.82;;;6.78;;
77466;SDS011;66564;42.482;25.548;2023-04-06T09:06:02;11.98;;;7.07;;
77466;SDS011;66564;42.482;25.548;2023-04-06T09:08:29;9.63;;;6.75;;
77466;SDS011;66564;42.482;25.548;2023-04-06T09:10:54;10.35;;;7.13;;
77466;SDS011;66564;42.482;25.548;2023-04-06T09:13:20;12.82;;;8.52;;
77466;SDS011;66564;42.482;25.548;2023-04-06T09:15:46;10.45;;;6.97;;
77466;SDS011;66564;42.482;25.548;2023-04-06T09:18:11;13.95;;;8.63;;
77466;SDS011;66564;42.482;25.548;2023-04-06T09:20:44;12.85;;;9.02;;
77466;SDS011;66564;42.482;25.548;2023-04-06T09:23:19;12.38;;;7.20;;
77466;SDS011;66564;42.482;25.548;2023-04-06T09:25:44;12.13;;;7.43;;
77466;SDS011;66564;42.482;25.548;2023-04-06T09:28:10;11.32;;;7.70;;
77466;SDS011;66564;42.482;25.548;2023-04-06T09:30:36;13.15;;;9.05;;
77466;SDS011;66564;42.482;25.548;2023-04-06T09:33:01;15.32;;;8.95;;
77466;SDS011;66564;42.482;25.548;2023-04-06T09:35:27;12.27;;;8.55;;
77466;SDS011;66564;42.482;25.548;2023-04-06T09:37:54;14.52;;;9.02;;
77466;SDS011;66564;42.482;25.548;2023-04-06T09:40:21;14.80;;;9.65;;
77466;SDS011;66564;42.482;25.548;2023-04-06T09:42:48;15.15;;;9.98;;
77466;SDS011;66564;42.482;25.548;2023-04-06T09:45:19;17.08;;;8.15;;
77466;SDS011;66564;42.482;25.548;2023-04-06T09:47:46;14.32;;;8.13;;
77466;SDS011;66564;42.482;25.548;2023-04-06T09:50:12;12.23;;;7.82;;
77466;SDS011;66564;42.482;25.548;2023-04-06T09:52:48;11.30;;;8.32;;
77466;SDS011;66564;42.482;25.548;2023-04-06T09:58:12;11.73;;;7.13;;
77466;SDS011;66564;42.482;25.548;2023-04-06T10:03:47;12.25;;;7.75;;
77466;SDS011;66564;42.482;25.548;2023-04-06T10:06:32;10.77;;;7.75;;
77466;SDS011;66564;42.482;25.548;2023-04-06T10:09:00;9.82;;;7.22;;
77466;SDS011;66564;42.482;25.548;2023-04-06T10:11:28;10.40;;;7.30;;
77466;SDS011;66564;42.482;25.548;2023-04-06T10:13:54;12.93;;;7.65;;
77466;SDS011;66564;42.482;25.548;2023-04-06T10:16:20;13.13;;;8.60;;
77466;SDS011;66564;42.482;25.548;2023-04-06T10:21:35;11.82;;;7.50;;
77466;SDS011;66564;42.482;25.548;2023-04-06T10:24:06;11.63;;;7.70;;
77466;SDS011;66564;42.482;25.548;2023-04-06T10:26:35;12.07;;;7.25;;
77466;SDS011;66564;42.482;25.548;2023-04-06T10:29:05;9.55;;;6.97;;
77466;SDS011;66564;42.482;25.548;2023-04-06T10:31:31;11.40;;;7.38;;
77466;SDS011;66564;42.482;25.548;2023-04-06T10:34:00;11.20;;;7.72;;
77466;SDS011;66564;42.482;25.548;2023-04-06T10:36:33;15.40;;;8.73;;
77466;SDS011;66564;42.482;25.548;2023-04-06T10:39:00;9.30;;;6.10;;
77466;SDS011;66564;42.482;25.548;2023-04-06T10:41:32;11.05;;;6.68;;
77466;SDS011;66564;42.482;25.548;2023-04-06T10:44:07;11.25;;;7.20;;
77466;SDS011;66564;42.482;25.548;2023-04-06T10:46:32;8.82;;;5.70;;
77466;SDS011;66564;42.482;25.548;2023-04-06T10:49:09;9.80;;;6.78;;
77466;SDS011;66564;42.482;25.548;2023-04-06T10:51:37;10.40;;;7.45;;
77466;SDS011;66564;42.482;25.548;2023-04-06T10:54:03;10.32;;;6.88;;
77466;SDS011;66564;42.482;25.548;2023-04-06T10:56:31;10.05;;;6.40;;
77466;SDS011;66564;42.482;25.548;2023-04-06T10:59:01;10.95;;;7.22;;
77466;SDS011;66564;42.482;25.548;2023-04-06T11:01:27;10.48;;;6.50;;
77466;SDS011;66564;42.482;25.548;2023-04-06T11:03:53;9.98;;;6.80;;
77466;SDS011;66564;42.482;25.548;2023-04-06T11:06:24;10.93;;;7.25;;
77466;SDS011;66564;42.482;25.548;2023-04-06T11:08:52;10.85;;;6.95;;
77466;SDS011;66564;42.482;25.548;2023-04-06T11:11:19;10.07;;;6.50;;
77466;SDS011;66564;42.482;25.548;2023-04-06T11:13:48;10.98;;;6.65;;
77466;SDS011;66564;42.482;25.548;2023-04-06T11:16:16;21.70;;;7.10;;
77466;SDS011;66564;42.482;25.548;2023-04-06T11:19:02;10.77;;;7.40;;
77466;SDS011;66564;42.482;25.548;2023-04-06T11:21:36;13.07;;;8.13;;
77466;SDS011;66564;42.482;25.548;2023-04-06T11:24:08;10.93;;;7.25;;
77466;SDS011;66564;42.482;25.548;2023-04-06T11:26:58;10.63;;;7.72;;
77466;SDS011;66564;42.482;25.548;2023-04-06T11:29:27;11.60;;;8.02;;
77466;SDS011;66564;42.482;25.548;2023-04-06T11:31:57;10.02;;;7.15;;
77466;SDS011;66564;42.482;25.548;2023-04-06T11:34:24;13.88;;;8.70;;
77466;SDS011;66564;42.482;25.548;2023-04-06T11:36:55;10.05;;;7.00;;
77466;SDS011;66564;42.482;25.548;2023-04-06T11:39:25;9.73;;;6.43;;
77466;SDS011;66564;42.482;25.548;2023-04-06T11:41:53;10.45;;;7.63;;
77466;SDS011;66564;42.482;25.548;2023-04-06T11:44:54;10.65;;;6.97;;
77466;SDS011;66564;42.482;25.548;2023-04-06T11:47:14;11.38;;;7.43;;
77466;SDS011;66564;42.482;25.548;2023-04-06T11:49:41;9.95;;;7.20;;
77466;SDS011;66564;42.482;25.548;2023-04-06T11:52:16;12.10;;;7.85;;
77466;SDS011;66564;42.482;25.548;2023-04-06T11:54:49;12.63;;;6.45;;
77466;SDS011;66564;42.482;25.548;2023-04-06T11:57:16;8.63;;;6.32;;
77466;SDS011;66564;42.482;25.548;2023-04-06T11:59:43;10.95;;;7.28;;
77466;SDS011;66564;42.482;25.548;2023-04-06T12:02:09;10.00;;;6.43;;
77466;SDS011;66564;42.482;25.548;2023-04-06T12:04:35;12.30;;;7.15;;
77466;SDS011;66564;42.482;25.548;2023-04-06T12:07:01;9.60;;;6.30;;
77466;SDS011;66564;42.482;25.548;2023-04-06T12:09:27;11.00;;;7.18;;
77466;SDS011;66564;42.482;25.548;2023-04-06T12:11:53;10.23;;;6.75;;
77466;SDS011;66564;42.482;25.548;2023-04-06T12:14:18;9.73;;;6.82;;
77466;SDS011;66564;42.482;25.548;2023-04-06T12:16:44;10.93;;;6.70;;
77466;SDS011;66564;42.482;25.548;2023-04-06T12:19:10;9.85;;;7.07;;
77466;SDS011;66564;42.482;25.548;2023-04-06T12:21:35;9.93;;;5.82;;
77466;SDS011;66564;42.482;25.548;2023-04-06T12:24:02;12.30;;;7.32;;
77466;SDS011;66564;42.482;25.548;2023-04-06T12:26:29;9.43;;;6.63;;
77466;SDS011;66564;42.482;25.548;2023-04-06T12:28:55;10.02;;;7.18;;
77466;SDS011;66564;42.482;25.548;2023-04-06T12:31:21;9.55;;;6.70;;
77466;SDS011;66564;42.482;25.548;2023-04-06T12:33:48;10.48;;;6.65;;
77466;SDS011;66564;42.482;25.548;2023-04-06T12:36:15;10.23;;;6.75;;
77466;SDS011;66564;42.482;25.548;2023-04-06T12:38:49;10.88;;;6.40;;
77466;SDS011;66564;42.482;25.548;2023-04-06T12:41:16;9.40;;;6.15;;
77466;SDS011;66564;42.482;25.548;2023-04-06T12:43:43;9.02;;;5.93;;
77466;SDS011;66564;42.482;25.548;2023-04-06T12:46:10;9.73;;;7.05;;
77466;SDS011;66564;42.482;25.548;2023-04-06T12:48:36;9.57;;;6.53;;
77466;SDS011;66564;42.482;25.548;2023-04-06T12:51:03;10.25;;;6.57;;
77466;SDS011;66564;42.482;25.548;2023-04-06T12:53:30;10.32;;;6.05;;
77466;SDS011;66564;42.482;25.548;2023-04-06T12:55:56;9.90;;;6.70;;
77466;SDS011;66564;42.482;25.548;2023-04-06T12:58:23;10.27;;;7.10;;
77466;SDS011;66564;42.482;25.548;2023-04-06T13:00:53;33.25;;;7.40;;
77466;SDS011;66564;42.482;25.548;2023-04-06T13:03:19;8.88;;;6.00;;
77466;SDS011;66564;42.482;25.548;2023-04-06T13:05:49;11.90;;;8.10;;
77466;SDS011;66564;42.482;25.548;2023-04-06T13:08:16;12.20;;;7.85;;
77466;SDS011;66564;42.482;25.548;2023-04-06T13:10:44;13.60;;;8.00;;
77466;SDS011;66564;42.482;25.548;2023-04-06T13:13:16;13.15;;;8.07;;
77466;SDS011;66564;42.482;25.548;2023-04-06T13:15:42;11.85;;;8.00;;
77466;SDS011;66564;42.482;25.548;2023-04-06T13:18:09;11.25;;;7.85;;
77466;SDS011;66564;42.482;25.548;2023-04-06T13:20:35;11.70;;;7.55;;
77466;SDS011;66564;42.482;25.548;2023-04-06T13:23:01;17.98;;;9.00;;
77466;SDS011;66564;42.482;25.548;2023-04-06T13:25:27;14.38;;;8.13;;
77466;SDS011;66564;42.482;25.548;2023-04-06T13:27:53;13.68;;;7.75;;
77466;SDS011;66564;42.482;25.548;2023-04-06T13:30:19;12.10;;;8.05;;
77466;SDS011;66564;42.482;25.548;2023-04-06T13:32:44;11.50;;;8.38;;
77466;SDS011;66564;42.482;25.548;2023-04-06T13:35:10;18.20;;;9.07;;
77466;SDS011;66564;42.482;25.548;2023-04-06T13:37:36;12.75;;;7.82;;
77466;SDS011;66564;42.482;25.548;2023-04-06T13:40:02;12.00;;;7.50;;
77466;SDS011;66564;42.482;25.548;2023-04-06T13:42:29;15.73;;;8.88;;
77466;SDS011;66564;42.482;25.548;2023-04-06T13:44:55;14.27;;;8.30;;
77466;SDS011;66564;42.482;25.548;2023-04-06T13:47:21;11.25;;;7.90;;
77466;SDS011;66564;42.482;25.548;2023-04-06T13:49:47;11.40;;;7.57;;
77466;SDS011;66564;42.482;25.548;2023-04-06T13:52:12;12.43;;;7.97;;
77466;SDS011;66564;42.482;25.548;2023-04-06T13:54:38;14.25;;;8.25;;
77466;SDS011;66564;42.482;25.548;2023-04-06T13:57:04;12.55;;;7.80;;
77466;SDS011;66564;42.482;25.548;2023-04-06T13:59:34;11.20;;;7.97;;
77466;SDS011;66564;42.482;25.548;2023-04-06T14:02:00;12.05;;;7.93;;
77466;SDS011;66564;42.482;25.548;2023-04-06T14:04:29;11.05;;;7.63;;
77466;SDS011;66564;42.482;25.548;2023-04-06T14:06:59;13.05;;;8.05;;
77466;SDS011;66564;42.482;25.548;2023-04-06T14:09:25;9.63;;;6.93;;
77466;SDS011;66564;42.482;25.548;2023-04-06T14:11:51;14.77;;;8.60;;
77466;SDS011;66564;42.482;25.548;2023-04-06T14:14:17;11.90;;;7.63;;
77466;SDS011;66564;42.482;25.548;2023-04-06T14:16:43;11.50;;;7.38;;
77466;SDS011;66564;42.482;25.548;2023-04-06T14:19:10;10.38;;;7.07;;
77466;SDS011;66564;42.482;25.548;2023-04-06T14:21:40;12.50;;;7.38;;
77466;SDS011;66564;42.482;25.548;2023-04-06T14:24:06;10.27;;;7.13;;
77466;SDS011;66564;42.482;25.548;2023-04-06T14:26:33;11.23;;;7.95;;
77466;SDS011;66564;42.482;25.548;2023-04-06T14:28:59;12.18;;;7.80;;
77466;SDS011;66564;42.482;25.548;2023-04-06T14:31:25;11.60;;;7.53;;
77466;SDS011;66564;42.482;25.548;2023-04-06T14:33:51;11.82;;;6.22;;
77466;SDS011;66564;42.482;25.548;2023-04-06T14:36:16;10.00;;;6.50;;